sensor_id;sensor_type;location;lat;lon;timestamp;temperature;humidity
25280;DHT22;13225;47.804;12.116;2023-12-04T00:01:32;-8.10;99.90
25280;DHT22;13225;47.804;12.116;2023-12-04T00:03:58;-8.10;99.90
25280;DHT22;13225;47.804;12.116;2023-12-04T00:06:26;-8.00;99.90
25280;DHT22;13225;47.804;12.116;2023-12-04T00:08:52;-8.00;99.90
25280;DHT22;13225;47.804;12.116;2023-12-04T00:11:17;-7.90;99.90
25280;DHT22;13225;47.804;12.116;2023-12-04T00:13:43;-8.00;99.90
25280;DHT22;13225;47.804;12.116;2023-12-04T00:16:09;-8.10;99.90
25280;DHT22;13225;47.804;12.116;2023-12-04T00:18:35;-8.30;99.90
25280;DHT22;13225;47.804;12.116;2023-12-04T00:21:04;-8.30;99.90
25280;DHT22;13225;47.804;12.116;2023-12-04T00:23:29;-8.20;99.90
25280;DHT22;13225;47.804;12.116;2023-12-04T00:25:55;-8.20;99.90
25280;DHT22;13225;47.804;12.116;2023-12-04T00:28:21;-8.20;99.90
25280;DHT22;13225;47.804;12.116;2023-12-04T00:30:47;-8.20;99.90
25280;DHT22;13225;47.804;12.116;2023-12-04T00:33:13;-8.20;99.90
25280;DHT22;13225;47.804;12.116;2023-12-04T00:35:39;-8.20;99.90
25280;DHT22;13225;47.804;12.116;2023-12-04T00:38:05;-8.30;99.90
25280;DHT22;13225;47.804;12.116;2023-12-04T00:40:30;-8.50;99.90
25280;DHT22;13225;47.804;12.116;2023-12-04T00:42:59;-8.30;99.90
25280;DHT22;13225;47.804;12.116;2023-12-04T00:45:25;-8.10;99.90
25280;DHT22;13225;47.804;12.116;2023-12-04T00:47:50;-8.10;99.90
25280;DHT22;13225;47.804;12.116;2023-12-04T00:50:16;-8.20;99.90
25280;DHT22;13225;47.804;12.116;2023-12-04T00:52:44;-8.20;99.90
25280;DHT22;13225;47.804;12.116;2023-12-04T00:55:10;-8.30;99.90
25280;DHT22;13225;47.804;12.116;2023-12-04T00:57:37;-8.30;99.90
25280;DHT22;13225;47.804;12.116;2023-12-04T01:00:03;-8.40;99.90
25280;DHT22;13225;47.804;12.116;2023-12-04T01:02:30;-8.40;99.90
25280;DHT22;13225;47.804;12.116;2023-12-04T01:04:58;-8.40;99.90
25280;DHT22;13225;47.804;12.116;2023-12-04T01:07:24;-8.50;99.90
25280;DHT22;13225;47.804;12.116;2023-12-04T01:09:49;-8.50;99.90
25280;DHT22;13225;47.804;12.116;2023-12-04T01:12:15;-8.60;99.90
25280;DHT22;13225;47.804;12.116;2023-12-04T01:14:46;-8.60;99.90
25280;DHT22;13225;47.804;12.116;2023-12-04T01:17:12;-8.60;99.90
25280;DHT22;13225;47.804;12.116;2023-12-04T01:19:37;-8.60;99.90
25280;DHT22;13225;47.804;12.116;2023-12-04T01:22:03;-8.60;99.90
25280;DHT22;13225;47.804;12.116;2023-12-04T01:24:29;-8.60;99.90
25280;DHT22;13225;47.804;12.116;2023-12-04T01:26:55;-8.60;99.90
25280;DHT22;13225;47.804;12.116;2023-12-04T01:29:20;-8.50;99.90
25280;DHT22;13225;47.804;12.116;2023-12-04T01:31:49;-8.60;99.90
25280;DHT22;13225;47.804;12.116;2023-12-04T01:34:20;-8.50;99.90
25280;DHT22;13225;47.804;12.116;2023-12-04T01:36:45;-8.50;99.90
25280;DHT22;13225;47.804;12.116;2023-12-04T01:39:14;-8.50;99.90
25280;DHT22;13225;47.804;12.116;2023-12-04T01:41:39;-8.50;99.90
25280;DHT22;13225;47.804;12.116;2023-12-04T01:44:06;-8.50;99.90
25280;DHT22;13225;47.804;12.116;2023-12-04T01:46:32;-8.50;99.90
25280;DHT22;13225;47.804;12.116;2023-12-04T01:48:58;-8.50;99.90
25280;DHT22;13225;47.804;12.116;2023-12-04T01:51:25;-8.60;99.90
25280;DHT22;13225;47.804;12.116;2023-12-04T01:53:51;-8.60;99.90
25280;DHT22;13225;47.804;12.116;2023-12-04T01:56:18;-8.60;99.90
25280;DHT22;13225;47.804;12.116;2023-12-04T01:58:45;-8.60;99.90
25280;DHT22;13225;47.804;12.116;2023-12-04T02:01:11;-8.60;99.90
25280;DHT22;13225;47.804;12.116;2023-12-04T02:03:37;-8.60;99.90
25280;DHT22;13225;47.804;12.116;2023-12-04T02:06:03;-8.60;99.90
25280;DHT22;13225;47.804;12.116;2023-12-04T02:08:30;-8.60;99.90
25280;DHT22;13225;47.804;12.116;2023-12-04T02:10:56;-8.70;99.90
25280;DHT22;13225;47.804;12.116;2023-12-04T02:13:22;-8.70;99.90
25280;DHT22;13225;47.804;12.116;2023-12-04T02:15:52;-8.70;99.90
25280;DHT22;13225;47.804;12.116;2023-12-04T02:18:19;-8.70;99.90
25280;DHT22;13225;47.804;12.116;2023-12-04T02:20:45;-8.70;99.90
25280;DHT22;13225;47.804;12.116;2023-12-04T02:23:11;-8.60;99.90
25280;DHT22;13225;47.804;12.116;2023-12-04T02:25:37;-8.60;99.90
25280;DHT22;13225;47.804;12.116;2023-12-04T02:28:06;-8.60;99.90
25280;DHT22;13225;47.804;12.116;2023-12-04T02:30:34;-8.60;99.90
25280;DHT22;13225;47.804;12.116;2023-12-04T02:33:05;-8.70;99.90
25280;DHT22;13225;47.804;12.116;2023-12-04T02:35:33;-8.60;99.90
25280;DHT22;13225;47.804;12.116;2023-12-04T02:38:00;-8.70;99.90
25280;DHT22;13225;47.804;12.116;2023-12-04T02:40:27;-8.70;99.90
25280;DHT22;13225;47.804;12.116;2023-12-04T02:42:53;-8.70;99.90
25280;DHT22;13225;47.804;12.116;2023-12-04T02:45:19;-8.70;99.90
25280;DHT22;13225;47.804;12.116;2023-12-04T02:47:44;-8.70;99.90
25280;DHT22;13225;47.804;12.116;2023-12-04T02:50:10;-8.60;99.90
25280;DHT22;13225;47.804;12.116;2023-12-04T02:52:36;-8.70;99.90
25280;DHT22;13225;47.804;12.116;2023-12-04T02:55:02;-8.70;99.90
25280;DHT22;13225;47.804;12.116;2023-12-04T02:57:27;-8.60;99.90
25280;DHT22;13225;47.804;12.116;2023-12-04T02:59:53;-8.60;99.90
25280;DHT22;13225;47.804;12.116;2023-12-04T03:02:21;-8.70;99.90
25280;DHT22;13225;47.804;12.116;2023-12-04T03:04:49;-8.60;99.90
25280;DHT22;13225;47.804;12.116;2023-12-04T03:07:14;-8.60;99.90
25280;DHT22;13225;47.804;12.116;2023-12-04T03:09:40;-8.60;99.90
25280;DHT22;13225;47.804;12.116;2023-12-04T03:12:06;-8.70;99.90
25280;DHT22;13225;47.804;12.116;2023-12-04T03:14:32;-8.70;99.90
25280;DHT22;13225;47.804;12.116;2023-12-04T03:16:57;-8.80;99.90
25280;DHT22;13225;47.804;12.116;2023-12-04T03:19:23;-8.80;99.90
25280;DHT22;13225;47.804;12.116;2023-12-04T03:21:49;-8.80;99.90
25280;DHT22;13225;47.804;12.116;2023-12-04T03:24:15;-8.90;99.90
25280;DHT22;13225;47.804;12.116;2023-12-04T03:26:40;-8.90;99.90
25280;DHT22;13225;47.804;12.116;2023-12-04T03:29:09;-9.00;99.90
25280;DHT22;13225;47.804;12.116;2023-12-04T03:31:35;-9.00;99.90
25280;DHT22;13225;47.804;12.116;2023-12-04T03:34:01;-9.00;99.90
25280;DHT22;13225;47.804;12.116;2023-12-04T03:36:28;-9.10;99.90
25280;DHT22;13225;47.804;12.116;2023-12-04T03:38:53;-9.10;99.90
25280;DHT22;13225;47.804;12.116;2023-12-04T03:41:19;-9.00;99.90
25280;DHT22;13225;47.804;12.116;2023-12-04T03:43:45;-9.00;99.90
25280;DHT22;13225;47.804;12.116;2023-12-04T03:46:13;-9.10;99.90
25280;DHT22;13225;47.804;12.116;2023-12-04T03:48:39;-9.10;99.90
25280;DHT22;13225;47.804;12.116;2023-12-04T03:51:05;-8.90;99.90
25280;DHT22;13225;47.804;12.116;2023-12-04T03:53:31;-8.80;99.90
25280;DHT22;13225;47.804;12.116;2023-12-04T03:55:58;-8.60;99.90
25280;DHT22;13225;47.804;12.116;2023-12-04T03:58:26;-8.60;99.90
25280;DHT22;13225;47.804;12.116;2023-12-04T04:00:55;-8.70;99.90
25280;DHT22;13225;47.804;12.116;2023-12-04T04:03:21;-8.90;99.90
25280;DHT22;13225;47.804;12.116;2023-12-04T04:05:47;-9.00;99.90
25280;DHT22;13225;47.804;12.116;2023-12-04T04:08:12;-9.10;99.90
25280;DHT22;13225;47.804;12.116;2023-12-04T04:10:38;-9.20;99.90
25280;DHT22;13225;47.804;12.116;2023-12-04T04:13:03;-9.20;99.90
25280;DHT22;13225;47.804;12.116;2023-12-04T04:15:29;-9.30;99.90
25280;DHT22;13225;47.804;12.116;2023-12-04T04:17:55;-9.30;99.90
25280;DHT22;13225;47.804;12.116;2023-12-04T04:20:20;-9.40;99.90
25280;DHT22;13225;47.804;12.116;2023-12-04T04:22:48;-9.40;99.90
25280;DHT22;13225;47.804;12.116;2023-12-04T04:25:14;-9.40;99.90
25280;DHT22;13225;47.804;12.116;2023-12-04T04:27:40;-9.40;99.90
25280;DHT22;13225;47.804;12.116;2023-12-04T04:30:06;-9.50;99.90
25280;DHT22;13225;47.804;12.116;2023-12-04T04:32:31;-9.50;99.90
25280;DHT22;13225;47.804;12.116;2023-12-04T04:34:59;-9.50;99.90
25280;DHT22;13225;47.804;12.116;2023-12-04T04:37:25;-9.50;99.90
25280;DHT22;13225;47.804;12.116;2023-12-04T04:39:51;-9.50;99.90
25280;DHT22;13225;47.804;12.116;2023-12-04T04:42:16;-9.50;99.90
25280;DHT22;13225;47.804;12.116;2023-12-04T04:44:42;-9.50;99.90
25280;DHT22;13225;47.804;12.116;2023-12-04T04:47:08;-9.50;99.90
25280;DHT22;13225;47.804;12.116;2023-12-04T04:49:33;-9.60;99.90
25280;DHT22;13225;47.804;12.116;2023-12-04T04:51:59;-9.60;99.90
25280;DHT22;13225;47.804;12.116;2023-12-04T04:54:25;-9.60;99.90
25280;DHT22;13225;47.804;12.116;2023-12-04T04:56:50;-9.60;99.90
25280;DHT22;13225;47.804;12.116;2023-12-04T04:59:16;-9.60;99.90
25280;DHT22;13225;47.804;12.116;2023-12-04T05:01:42;-9.60;99.90
25280;DHT22;13225;47.804;12.116;2023-12-04T05:04:10;-9.60;99.90
25280;DHT22;13225;47.804;12.116;2023-12-04T05:06:36;-9.70;99.90
25280;DHT22;13225;47.804;12.116;2023-12-04T05:09:01;-9.70;99.90
25280;DHT22;13225;47.804;12.116;2023-12-04T05:11:30;-9.70;99.90
25280;DHT22;13225;47.804;12.116;2023-12-04T05:13:56;-9.70;99.90
25280;DHT22;13225;47.804;12.116;2023-12-04T05:16:21;-9.70;99.90
25280;DHT22;13225;47.804;12.116;2023-12-04T05:18:47;-9.60;99.90
25280;DHT22;13225;47.804;12.116;2023-12-04T05:21:13;-9.60;99.90
25280;DHT22;13225;47.804;12.116;2023-12-04T05:23:41;-9.60;99.90
25280;DHT22;13225;47.804;12.116;2023-12-04T05:26:07;-9.60;99.90
25280;DHT22;13225;47.804;12.116;2023-12-04T05:28:33;-9.60;99.90
25280;DHT22;13225;47.804;12.116;2023-12-04T05:30:59;-9.60;99.90
25280;DHT22;13225;47.804;12.116;2023-12-04T05:33:25;-9.60;99.90
25280;DHT22;13225;47.804;12.116;2023-12-04T05:35:53;-9.60;99.90
25280;DHT22;13225;47.804;12.116;2023-12-04T05:38:18;-9.60;99.90
25280;DHT22;13225;47.804;12.116;2023-12-04T05:40:44;-9.60;99.90
25280;DHT22;13225;47.804;12.116;2023-12-04T05:43:10;-9.50;99.90
25280;DHT22;13225;47.804;12.116;2023-12-04T05:45:36;-9.40;99.90
25280;DHT22;13225;47.804;12.116;2023-12-04T05:48:02;-9.40;99.90
25280;DHT22;13225;47.804;12.116;2023-12-04T05:50:27;-9.40;99.90
25280;DHT22;13225;47.804;12.116;2023-12-04T05:52:53;-9.30;99.90
25280;DHT22;13225;47.804;12.116;2023-12-04T05:55:18;-9.40;99.90
25280;DHT22;13225;47.804;12.116;2023-12-04T05:57:45;-9.30;99.90
25280;DHT22;13225;47.804;12.116;2023-12-04T06:00:12;-9.30;99.90
25280;DHT22;13225;47.804;12.116;2023-12-04T06:02:44;-9.30;99.90
25280;DHT22;13225;47.804;12.116;2023-12-04T06:05:11;-9.30;99.90
25280;DHT22;13225;47.804;12.116;2023-12-04T06:07:37;-9.30;99.90
25280;DHT22;13225;47.804;12.116;2023-12-04T06:10:03;-9.20;99.90
25280;DHT22;13225;47.804;12.116;2023-12-04T06:12:32;-9.20;99.90
25280;DHT22;13225;47.804;12.116;2023-12-04T06:14:58;-9.20;99.90
25280;DHT22;13225;47.804;12.116;2023-12-04T06:17:24;-9.20;99.90
25280;DHT22;13225;47.804;12.116;2023-12-04T06:19:50;-9.10;99.90
25280;DHT22;13225;47.804;12.116;2023-12-04T06:22:16;-9.10;99.90
25280;DHT22;13225;47.804;12.116;2023-12-04T06:24:45;-9.10;99.90
25280;DHT22;13225;47.804;12.116;2023-12-04T06:27:15;-9.10;99.90
25280;DHT22;13225;47.804;12.116;2023-12-04T06:32:08;-9.00;99.90
25280;DHT22;13225;47.804;12.116;2023-12-04T06:34:34;-9.00;99.90
25280;DHT22;13225;47.804;12.116;2023-12-04T06:37:02;-8.90;99.90
25280;DHT22;13225;47.804;12.116;2023-12-04T06:39:32;-8.80;99.90
25280;DHT22;13225;47.804;12.116;2023-12-04T06:41:58;-8.70;99.90
25280;DHT22;13225;47.804;12.116;2023-12-04T06:44:24;-8.70;99.90
25280;DHT22;13225;47.804;12.116;2023-12-04T06:46:52;-8.70;99.90
25280;DHT22;13225;47.804;12.116;2023-12-04T06:49:18;-8.60;99.90
25280;DHT22;13225;47.804;12.116;2023-12-04T06:51:44;-8.60;99.90
25280;DHT22;13225;47.804;12.116;2023-12-04T06:54:10;-8.50;99.90
25280;DHT22;13225;47.804;12.116;2023-12-04T06:56:37;-8.50;99.90
25280;DHT22;13225;47.804;12.116;2023-12-04T06:59:05;-8.40;99.90
25280;DHT22;13225;47.804;12.116;2023-12-04T07:01:31;-8.40;99.90
25280;DHT22;13225;47.804;12.116;2023-12-04T07:03:57;-8.30;99.90
25280;DHT22;13225;47.804;12.116;2023-12-04T07:06:23;-8.20;99.90
25280;DHT22;13225;47.804;12.116;2023-12-04T07:08:48;-8.10;99.90
25280;DHT22;13225;47.804;12.116;2023-12-04T07:11:14;-8.00;99.90
25280;DHT22;13225;47.804;12.116;2023-12-04T07:13:41;-7.90;99.90
25280;DHT22;13225;47.804;12.116;2023-12-04T07:16:08;-7.80;99.90
25280;DHT22;13225;47.804;12.116;2023-12-04T07:18:34;-7.80;99.90
25280;DHT22;13225;47.804;12.116;2023-12-04T07:21:00;-7.70;99.90
25280;DHT22;13225;47.804;12.116;2023-12-04T07:23:26;-7.80;99.90
25280;DHT22;13225;47.804;12.116;2023-12-04T07:25:51;-7.70;99.90
25280;DHT22;13225;47.804;12.116;2023-12-04T07:28:18;-7.70;99.90
25280;DHT22;13225;47.804;12.116;2023-12-04T07:30:43;-7.60;99.90
25280;DHT22;13225;47.804;12.116;2023-12-04T07:33:09;-7.60;99.90
25280;DHT22;13225;47.804;12.116;2023-12-04T07:35:36;-7.50;99.90
25280;DHT22;13225;47.804;12.116;2023-12-04T07:38:01;-7.50;99.90
25280;DHT22;13225;47.804;12.116;2023-12-04T07:40:28;-7.50;99.90
25280;DHT22;13225;47.804;12.116;2023-12-04T07:42:54;-7.40;99.90
25280;DHT22;13225;47.804;12.116;2023-12-04T07:45:20;-7.40;99.90
25280;DHT22;13225;47.804;12.116;2023-12-04T07:47:46;-7.40;99.90
25280;DHT22;13225;47.804;12.116;2023-12-04T07:50:12;-7.40;99.90
25280;DHT22;13225;47.804;12.116;2023-12-04T07:52:40;-7.30;99.90
25280;DHT22;13225;47.804;12.116;2023-12-04T07:55:05;-7.30;99.90
25280;DHT22;13225;47.804;12.116;2023-12-04T07:57:32;-7.20;99.90
25280;DHT22;13225;47.804;12.116;2023-12-04T07:59:57;-7.00;99.90
25280;DHT22;13225;47.804;12.116;2023-12-04T08:02:23;-6.90;99.90
25280;DHT22;13225;47.804;12.116;2023-12-04T08:07:14;-6.90;99.90
25280;DHT22;13225;47.804;12.116;2023-12-04T08:09:41;-6.80;99.90
25280;DHT22;13225;47.804;12.116;2023-12-04T08:12:07;-6.70;99.90
25280;DHT22;13225;47.804;12.116;2023-12-04T08:14:33;-6.70;99.90
25280;DHT22;13225;47.804;12.116;2023-12-04T08:16:59;-6.60;99.90
25280;DHT22;13225;47.804;12.116;2023-12-04T08:19:24;-6.50;99.90
25280;DHT22;13225;47.804;12.116;2023-12-04T08:21:50;-6.40;99.90
25280;DHT22;13225;47.804;12.116;2023-12-04T08:24:15;-6.30;99.90
25280;DHT22;13225;47.804;12.116;2023-12-04T08:26:46;-6.20;99.90
25280;DHT22;13225;47.804;12.116;2023-12-04T08:29:12;-6.50;99.90
25280;DHT22;13225;47.804;12.116;2023-12-04T08:31:41;-6.30;99.90
25280;DHT22;13225;47.804;12.116;2023-12-04T08:34:06;-6.20;99.90
25280;DHT22;13225;47.804;12.116;2023-12-04T08:36:32;-6.20;99.90
25280;DHT22;13225;47.804;12.116;2023-12-04T08:39:00;-6.10;99.90
25280;DHT22;13225;47.804;12.116;2023-12-04T08:41:26;-6.10;99.90
25280;DHT22;13225;47.804;12.116;2023-12-04T08:43:54;-6.10;99.90
25280;DHT22;13225;47.804;12.116;2023-12-04T08:46:20;-6.00;99.90
25280;DHT22;13225;47.804;12.116;2023-12-04T08:48:46;-5.90;99.90
25280;DHT22;13225;47.804;12.116;2023-12-04T08:51:20;-5.80;99.90
25280;DHT22;13225;47.804;12.116;2023-12-04T08:53:46;-5.60;99.90
25280;DHT22;13225;47.804;12.116;2023-12-04T08:56:15;-5.60;99.90
25280;DHT22;13225;47.804;12.116;2023-12-04T08:58:41;-5.50;99.90
25280;DHT22;13225;47.804;12.116;2023-12-04T09:01:06;-5.30;99.90
25280;DHT22;13225;47.804;12.116;2023-12-04T09:03:32;-5.20;99.90
25280;DHT22;13225;47.804;12.116;2023-12-04T09:05:58;-4.90;99.90
25280;DHT22;13225;47.804;12.116;2023-12-04T09:08:26;-4.60;99.90
25280;DHT22;13225;47.804;12.116;2023-12-04T09:10:54;-4.50;99.90
25280;DHT22;13225;47.804;12.116;2023-12-04T09:13:22;-4.60;99.90
25280;DHT22;13225;47.804;12.116;2023-12-04T09:15:48;-4.80;99.90
25280;DHT22;13225;47.804;12.116;2023-12-04T09:18:14;-4.90;99.90
25280;DHT22;13225;47.804;12.116;2023-12-04T09:20:43;-5.00;99.90
25280;DHT22;13225;47.804;12.116;2023-12-04T09:23:09;-4.90;99.90
25280;DHT22;13225;47.804;12.116;2023-12-04T09:25:37;-4.70;99.90
25280;DHT22;13225;47.804;12.116;2023-12-04T09:28:03;-4.50;99.90
25280;DHT22;13225;47.804;12.116;2023-12-04T09:30:44;-4.20;99.90
25280;DHT22;13225;47.804;12.116;2023-12-04T09:33:10;-4.10;99.90
25280;DHT22;13225;47.804;12.116;2023-12-04T09:35:39;-4.00;99.90
25280;DHT22;13225;47.804;12.116;2023-12-04T09:38:04;-3.90;99.90
25280;DHT22;13225;47.804;12.116;2023-12-04T09:40:30;-3.60;99.90
25280;DHT22;13225;47.804;12.116;2023-12-04T09:42:59;-3.60;99.90
25280;DHT22;13225;47.804;12.116;2023-12-04T09:45:25;-3.40;99.90
25280;DHT22;13225;47.804;12.116;2023-12-04T09:47:51;-3.10;99.90
25280;DHT22;13225;47.804;12.116;2023-12-04T09:50:18;-3.00;99.90
25280;DHT22;13225;47.804;12.116;2023-12-04T09:52:51;-3.50;99.90
25280;DHT22;13225;47.804;12.116;2023-12-04T09:55:17;-3.90;99.90
25280;DHT22;13225;47.804;12.116;2023-12-04T09:57:44;-3.70;99.90
25280;DHT22;13225;47.804;12.116;2023-12-04T10:00:14;-4.10;99.90
25280;DHT22;13225;47.804;12.116;2023-12-04T10:02:43;-3.90;99.90
25280;DHT22;13225;47.804;12.116;2023-12-04T10:05:09;-3.70;99.90
25280;DHT22;13225;47.804;12.116;2023-12-04T10:07:35;-3.70;99.90
25280;DHT22;13225;47.804;12.116;2023-12-04T10:10:02;-4.00;99.90
25280;DHT22;13225;47.804;12.116;2023-12-04T10:12:31;-4.30;99.90
25280;DHT22;13225;47.804;12.116;2023-12-04T10:15:07;-4.30;99.90
25280;DHT22;13225;47.804;12.116;2023-12-04T10:17:40;-4.30;99.90
25280;DHT22;13225;47.804;12.116;2023-12-04T10:20:09;-4.10;99.90
25280;DHT22;13225;47.804;12.116;2023-12-04T10:22:56;-4.30;99.90
25280;DHT22;13225;47.804;12.116;2023-12-04T10:25:23;-4.20;99.90
25280;DHT22;13225;47.804;12.116;2023-12-04T10:27:50;-4.00;99.90
25280;DHT22;13225;47.804;12.116;2023-12-04T10:30:27;-3.80;99.90
25280;DHT22;13225;47.804;12.116;2023-12-04T10:33:05;-3.50;99.90
25280;DHT22;13225;47.804;12.116;2023-12-04T10:35:34;-3.60;99.90
25280;DHT22;13225;47.804;12.116;2023-12-04T10:38:02;-4.00;99.90
25280;DHT22;13225;47.804;12.116;2023-12-04T10:40:33;-3.80;99.90
25280;DHT22;13225;47.804;12.116;2023-12-04T10:43:19;-3.50;99.90
25280;DHT22;13225;47.804;12.116;2023-12-04T10:45:48;-3.30;99.90
25280;DHT22;13225;47.804;12.116;2023-12-04T10:48:15;-3.60;99.90
25280;DHT22;13225;47.804;12.116;2023-12-04T10:50:43;-3.40;99.90
25280;DHT22;13225;47.804;12.116;2023-12-04T10:53:11;-3.60;99.90
25280;DHT22;13225;47.804;12.116;2023-12-04T10:55:39;-3.60;99.90
25280;DHT22;13225;47.804;12.116;2023-12-04T10:58:07;-3.40;99.90
25280;DHT22;13225;47.804;12.116;2023-12-04T11:00:44;-3.40;99.90
25280;DHT22;13225;47.804;12.116;2023-12-04T11:03:15;-3.60;99.90
25280;DHT22;13225;47.804;12.116;2023-12-04T11:05:44;-3.40;99.90
25280;DHT22;13225;47.804;12.116;2023-12-04T11:08:12;-2.80;99.90
25280;DHT22;13225;47.804;12.116;2023-12-04T11:10:56;-2.80;99.90
25280;DHT22;13225;47.804;12.116;2023-12-04T11:13:23;-2.80;99.90
25280;DHT22;13225;47.804;12.116;2023-12-04T11:15:52;-2.40;99.90
25280;DHT22;13225;47.804;12.116;2023-12-04T11:18:23;-1.90;99.90
25280;DHT22;13225;47.804;12.116;2023-12-04T11:20:56;-1.90;99.90
25280;DHT22;13225;47.804;12.116;2023-12-04T11:23:24;-1.90;99.90
25280;DHT22;13225;47.804;12.116;2023-12-04T11:25:51;-2.20;99.90
25280;DHT22;13225;47.804;12.116;2023-12-04T11:28:17;-2.30;99.90
25280;DHT22;13225;47.804;12.116;2023-12-04T11:30:47;-2.40;99.90
25280;DHT22;13225;47.804;12.116;2023-12-04T11:33:13;-2.60;99.90
25280;DHT22;13225;47.804;12.116;2023-12-04T11:35:39;-2.70;99.90
25280;DHT22;13225;47.804;12.116;2023-12-04T11:38:05;-2.90;99.90
25280;DHT22;13225;47.804;12.116;2023-12-04T11:40:32;-2.90;99.90
25280;DHT22;13225;47.804;12.116;2023-12-04T11:42:58;-2.90;99.90
25280;DHT22;13225;47.804;12.116;2023-12-04T11:45:32;-2.90;99.90
25280;DHT22;13225;47.804;12.116;2023-12-04T11:47:58;-2.90;99.90
25280;DHT22;13225;47.804;12.116;2023-12-04T11:50:24;-2.80;99.90
25280;DHT22;13225;47.804;12.116;2023-12-04T11:52:53;-3.00;99.90
25280;DHT22;13225;47.804;12.116;2023-12-04T11:55:25;-2.80;99.90
25280;DHT22;13225;47.804;12.116;2023-12-04T11:57:51;-2.80;99.90
25280;DHT22;13225;47.804;12.116;2023-12-04T12:00:21;-3.00;99.90
25280;DHT22;13225;47.804;12.116;2023-12-04T12:05:21;-2.50;99.90
25280;DHT22;13225;47.804;12.116;2023-12-04T12:07:47;-2.50;99.90
25280;DHT22;13225;47.804;12.116;2023-12-04T12:10:13;-2.50;99.90
25280;DHT22;13225;47.804;12.116;2023-12-04T12:12:48;-2.50;99.90
25280;DHT22;13225;47.804;12.116;2023-12-04T12:15:14;-2.60;99.90
25280;DHT22;13225;47.804;12.116;2023-12-04T12:17:42;-2.80;99.90
25280;DHT22;13225;47.804;12.116;2023-12-04T12:20:09;-2.90;99.90
25280;DHT22;13225;47.804;12.116;2023-12-04T12:22:37;-3.40;99.90
25280;DHT22;13225;47.804;12.116;2023-12-04T12:25:08;-3.30;99.90
25280;DHT22;13225;47.804;12.116;2023-12-04T12:27:34;-2.80;99.90
25280;DHT22;13225;47.804;12.116;2023-12-04T12:30:02;-2.90;99.90
25280;DHT22;13225;47.804;12.116;2023-12-04T12:32:30;-2.90;99.90
25280;DHT22;13225;47.804;12.116;2023-12-04T12:34:56;-2.90;99.90
25280;DHT22;13225;47.804;12.116;2023-12-04T12:37:22;-2.70;99.90
25280;DHT22;13225;47.804;12.116;2023-12-04T12:39:48;-2.80;99.90
25280;DHT22;13225;47.804;12.116;2023-12-04T12:42:29;-3.00;99.90
25280;DHT22;13225;47.804;12.116;2023-12-04T12:45:01;-2.70;99.90
25280;DHT22;13225;47.804;12.116;2023-12-04T12:47:28;-2.50;99.90
25280;DHT22;13225;47.804;12.116;2023-12-04T12:49:57;-2.40;99.90
25280;DHT22;13225;47.804;12.116;2023-12-04T12:52:23;-2.60;99.90
25280;DHT22;13225;47.804;12.116;2023-12-04T12:54:48;-2.60;99.90
25280;DHT22;13225;47.804;12.116;2023-12-04T12:57:14;-2.70;99.90
25280;DHT22;13225;47.804;12.116;2023-12-04T12:59:42;-3.00;99.90
25280;DHT22;13225;47.804;12.116;2023-12-04T13:02:08;-3.00;99.90
25280;DHT22;13225;47.804;12.116;2023-12-04T13:04:40;-2.80;99.90
25280;DHT22;13225;47.804;12.116;2023-12-04T13:07:07;-2.60;99.90
25280;DHT22;13225;47.804;12.116;2023-12-04T13:09:38;-2.60;99.90
25280;DHT22;13225;47.804;12.116;2023-12-04T13:12:06;-2.50;99.90
25280;DHT22;13225;47.804;12.116;2023-12-04T13:14:33;-2.10;99.90
25280;DHT22;13225;47.804;12.116;2023-12-04T13:17:02;-2.10;99.90
25280;DHT22;13225;47.804;12.116;2023-12-04T13:19:28;-2.00;99.90
25280;DHT22;13225;47.804;12.116;2023-12-04T13:21:54;-1.90;99.90
25280;DHT22;13225;47.804;12.116;2023-12-04T13:24:20;-2.00;99.90
25280;DHT22;13225;47.804;12.116;2023-12-04T13:26:48;-1.80;99.90
25280;DHT22;13225;47.804;12.116;2023-12-04T13:29:13;-1.80;99.90
25280;DHT22;13225;47.804;12.116;2023-12-04T13:31:43;-1.90;99.90
25280;DHT22;13225;47.804;12.116;2023-12-04T13:34:08;-2.00;99.90
25280;DHT22;13225;47.804;12.116;2023-12-04T13:36:34;-2.10;99.90
25280;DHT22;13225;47.804;12.116;2023-12-04T13:39:01;-2.00;99.90
25280;DHT22;13225;47.804;12.116;2023-12-04T13:41:30;-2.20;99.90
25280;DHT22;13225;47.804;12.116;2023-12-04T13:44:17;-2.20;99.90
25280;DHT22;13225;47.804;12.116;2023-12-04T13:46:42;-2.30;99.90
25280;DHT22;13225;47.804;12.116;2023-12-04T13:49:08;-2.30;99.90
25280;DHT22;13225;47.804;12.116;2023-12-04T13:51:35;-2.60;99.90
25280;DHT22;13225;47.804;12.116;2023-12-04T13:54:05;-2.70;99.90
25280;DHT22;13225;47.804;12.116;2023-12-04T13:56:43;-2.50;99.90
25280;DHT22;13225;47.804;12.116;2023-12-04T13:59:22;-2.40;99.90
25280;DHT22;13225;47.804;12.116;2023-12-04T14:01:52;-2.30;99.90
25280;DHT22;13225;47.804;12.116;2023-12-04T14:04:21;-2.30;99.90
25280;DHT22;13225;47.804;12.116;2023-12-04T14:06:49;-2.40;99.90
25280;DHT22;13225;47.804;12.116;2023-12-04T14:09:20;-2.50;99.90
25280;DHT22;13225;47.804;12.116;2023-12-04T14:11:46;-2.60;99.90
25280;DHT22;13225;47.804;12.116;2023-12-04T14:14:13;-2.50;99.90
25280;DHT22;13225;47.804;12.116;2023-12-04T14:16:39;-2.60;99.90
25280;DHT22;13225;47.804;12.116;2023-12-04T14:19:05;-2.60;99.90
25280;DHT22;13225;47.804;12.116;2023-12-04T14:21:31;-2.60;99.90
25280;DHT22;13225;47.804;12.116;2023-12-04T14:24:00;-2.70;99.90
25280;DHT22;13225;47.804;12.116;2023-12-04T14:26:25;-2.70;99.90
25280;DHT22;13225;47.804;12.116;2023-12-04T14:28:51;-2.60;99.90
25280;DHT22;13225;47.804;12.116;2023-12-04T14:31:17;-2.60;99.90
25280;DHT22;13225;47.804;12.116;2023-12-04T14:33:43;-2.70;99.90
25280;DHT22;13225;47.804;12.116;2023-12-04T14:36:10;-2.50;99.90
25280;DHT22;13225;47.804;12.116;2023-12-04T14:38:38;-2.10;99.90
25280;DHT22;13225;47.804;12.116;2023-12-04T14:41:04;-1.70;99.90
25280;DHT22;13225;47.804;12.116;2023-12-04T14:43:30;-1.40;99.90
25280;DHT22;13225;47.804;12.116;2023-12-04T14:46:01;-1.30;99.90
25280;DHT22;13225;47.804;12.116;2023-12-04T14:48:27;-1.50;99.90
25280;DHT22;13225;47.804;12.116;2023-12-04T14:50:53;-1.70;99.90
25280;DHT22;13225;47.804;12.116;2023-12-04T14:53:18;-2.10;99.90
25280;DHT22;13225;47.804;12.116;2023-12-04T14:56:10;-2.70;99.90
25280;DHT22;13225;47.804;12.116;2023-12-04T14:58:54;-3.00;99.90
25280;DHT22;13225;47.804;12.116;2023-12-04T15:01:40;-3.20;99.90
25280;DHT22;13225;47.804;12.116;2023-12-04T15:04:21;-3.30;99.90
25280;DHT22;13225;47.804;12.116;2023-12-04T15:06:58;-3.60;99.90
25280;DHT22;13225;47.804;12.116;2023-12-04T15:09:56;-3.80;99.90
25280;DHT22;13225;47.804;12.116;2023-12-04T15:12:40;-3.90;99.90
25280;DHT22;13225;47.804;12.116;2023-12-04T15:15:12;-3.90;99.90
25280;DHT22;13225;47.804;12.116;2023-12-04T15:18:01;-4.10;99.90
25280;DHT22;13225;47.804;12.116;2023-12-04T15:20:45;-4.30;99.90
25280;DHT22;13225;47.804;12.116;2023-12-04T15:23:11;-4.20;99.90
25280;DHT22;13225;47.804;12.116;2023-12-04T15:25:40;-4.30;99.90